Sunday, April 22, 2018, 5:56 PM EDT
Back to Local

KLOM, Philadelphia, Wings Field Airport

Location: Blue Bell, PA, United States Lat: 40.138
Local Time: 5:56 PM EDT (21:56 GMT) Lon: -75.265
Time Zone: US/Eastern Elev: 301 ft

Show me the last for .
Show Coded

Time T Td Feel RH Dir Speed Gust Alt SLP Vis Weather Sky Remarks
2018-04-22 17:35 63 27 - 25 280° 5 - 30.35 - 10 CLR None
2018-04-22 17:15 63 28 - 27 280° 8 - 30.35 - 10 CLR None
2018-04-22 16:55 63 28 - 27 320° 5 - 30.35 - 10 CLR None
2018-04-22 16:35 63 27 - 25 - Calm - 30.35 - 10 CLR None
2018-04-22 16:15 63 27 - 25 - Calm - 30.36 - 10 CLR None
2018-04-22 15:55 63 28 - 27 140° 3 - 30.36 - 10 CLR None
2018-04-22 15:35 61 28 - 29 300° 7 - 30.37 - 10 CLR None
2018-04-22 15:15 63 28 - 27 - Calm - 30.37 - 10 CLR None
2018-04-22 14:55 61 28 - 29 270° 3 - 30.38 - 10 CLR None
2018-04-22 14:35 61 28 - 29 - Calm - 30.39 - 10 CLR None
2018-04-22 14:15 61 28 - 29 260° 6 - 30.39 - 10 CLR None
2018-04-22 13:55 61 27 - 26 260° 3 - 30.40 - 10 CLR None
2018-04-22 13:35 59 27 - 28 260° 5 - 30.41 - 10 CLR None
2018-04-22 13:15 59 25 - 26 230° 7 - 30.41 - 10 CLR None
2018-04-22 12:55 59 28 - 30 270° 5 - 30.41 - 10 CLR None
2018-04-22 12:35 59 27 - 28 - Calm - 30.42 - 10 CLR None
2018-04-22 12:15 59 23 - 24 - Calm - 30.42 - 10 CLR None
2018-04-22 11:55 55 23 - 28 - Calm - 30.43 - 10 CLR None
2018-04-22 11:35 55 23 - 28 - Calm - 30.43 - 10 CLR None
2018-04-22 11:15 57 25 - 28 360° 7 - 30.44 - 10 CLR None
2018-04-22 10:55 55 25 - 30 - Calm - 30.44 - 10 CLR None
2018-04-22 10:35 55 23 - 28 100° 3 - 30.44 - 10 CLR None
2018-04-22 10:15 54 23 - 30 60° 3 - 30.44 - 10 CLR None
2018-04-22 09:55 54 23 - 30 - Calm - 30.45 - 10 CLR None
2018-04-22 09:35 52 23 - 32 - Calm - 30.45 - 10 CLR None
2018-04-22 09:15 52 23 - 32 - Calm - 30.45 - 10 CLR None
2018-04-22 08:55 50 25 - 37 - Calm - 30.45 - 10 CLR None
2018-04-22 08:35 48 27 - 42 - Calm - 30.45 - 10 CLR None
2018-04-22 08:15 46 30 - 52 - Calm - 30.45 - 10 CLR None
2018-04-22 07:55 45 32 - 61 - Calm - 30.44 - 10 CLR None
2018-04-22 07:35 39 32 - 75 - Calm - 30.44 - 10 CLR None
2018-04-22 07:15 36 30 - 80 - Calm - 30.44 - 10 CLR None
2018-04-22 06:55 34 28 - 80 - Calm - 30.44 - 10 CLR None
2018-04-22 06:35 32 30 - 92 - Calm - 30.43 - 10 CLR None
2018-04-22 06:15 32 28 - 86 - Calm - 30.43 - 10 CLR None
2018-04-22 05:55 32 30 - 92 - Calm - 30.43 - 10 CLR None
2018-04-22 05:35 34 30 - 86 - Calm - 30.42 - 10 CLR None
2018-04-22 05:15 34 32 - 93 - Calm - 30.41 - 10 CLR None
2018-04-22 04:55 34 30 - 86 - Calm - 30.41 - 10 CLR None
2018-04-22 04:35 34 30 - 86 - Calm - 30.40 - 10 CLR None
2018-04-22 04:15 36 32 - 86 - Calm - 30.40 - 10 CLR None
2018-04-22 03:55 36 30 - 80 - Calm - 30.40 - 10 CLR None
2018-04-22 03:35 36 30 - 80 - Calm - 30.40 - 10 CLR None
2018-04-22 03:15 39 30 - 69 - Calm - 30.40 - 10 CLR None
2018-04-22 02:55 41 27 - 56 - Calm - 30.41 - 10 CLR None
2018-04-22 02:35 41 28 - 60 - Calm - 30.40 - 10 CLR None
2018-04-22 02:15 37 32 - 80 - Calm - 30.41 - 10 CLR None
2018-04-22 01:55 39 32 - 75 - Calm - 30.41 - 10 CLR None
2018-04-22 01:35 39 32 - 75 - Calm - 30.41 - 10 CLR None
2018-04-22 01:15 39 34 - 80 - Calm - 30.40 - 10 CLR None
2018-04-22 00:55 37 36 - 93 - Calm - 30.40 - 10 CLR None
2018-04-22 00:35 39 32 - 75 - Calm - 30.40 - 10 CLR None
2018-04-22 00:15 39 34 - 80 - Calm - 30.39 - 10 CLR None
2018-04-21 23:55 41 34 - 75 - Calm - 30.38 - 10 CLR None
2018-04-21 23:35 43 34 - 70 - Calm - 30.38 - 10 CLR None
2018-04-21 23:15 43 34 - 70 - Calm - 30.37 - 10 CLR None
2018-04-21 22:55 45 32 - 61 - Calm - 30.37 - 10 CLR None
2018-04-21 22:35 45 32 - 61 - Calm - 30.37 - 10 CLR None
2018-04-21 22:15 45 34 - 65 - Calm - 30.37 - 10 CLR None
2018-04-21 21:55 45 34 - 65 - Calm - 30.36 - 10 CLR None
2018-04-21 21:35 48 32 - 53 - Calm - 30.36 - 10 CLR None
2018-04-21 21:15 52 30 - 43 - Calm - 30.36 - 10 CLR None
2018-04-21 20:55 52 32 - 46 - Calm - 30.35 - 10 CLR None
2018-04-21 20:35 52 32 - 46 250° 3 - 30.35 - 10 CLR None
2018-04-21 20:15 52 32 - 46 250° 5 - 30.34 - 10 CLR None
2018-04-21 19:55 54 32 - 43 230° 5 - 30.33 - 10 CLR None
2018-04-21 19:35 54 28 - 37 - Calm - 30.33 - 10 CLR None
2018-04-21 19:15 55 28 - 35 270° 6 - 30.33 - 10 CLR None
2018-04-21 18:55 55 28 - 35 260° 3 - 30.32 - 10 CLR None
2018-04-21 18:35 55 28 - 35 260° 6 - 30.32 - 10 CLR None
2018-04-21 18:15 55 28 - 35 260° 5 - 30.32 - 10 CLR None

Support USWX by starting your Amazon purchase here.